Search for airport 
image banner adimage banner adimage banner ad
image banner ad

40PN - Eagles Mere Field

Located in Eagles Mere, United States

ICAO - 40PN, IATA -

Data provided by Airmate  

General information

Coordinates: N41°23'28" W76°36'41"
Elevation is 1900 feet MSL.
 
View others Airports in Pennsylvania

Operational data

Special qualification required
Current time UTC:
Current local time:
Weather at : KIPT - Williamsport Rgnl ( 31 km )
METAR: KIPT 071254Z 27003KT 10SM OVC085 07/03 A2992 RMK AO2 SLP132 T00720028
TAF: KIPT 071127Z 0712/0812 08005KT P6SM SCT100 BKN250 FM071900 13006KT P6SM -RA OVC050 FM072200 08006KT 5SM -RA BR OVC030 FM080500 26006KT P6SM BKN035
View NOTAMs / SUP AIP / TFR affecting this airport [VIEW]
Communications frequencies: [VIEW]

Runways:

RWY identifierQFULength (ft)Width (ft)SurfaceLDA (ft)
122200150GRASS
302200150GRASS

Airport contact information

Address: Eagles Mere United States

Satellite view of 40PN